Time;durP1;ratioP1;P1;durP2;ratioP2;P2;SDS_P1;SDS_P2;PMS_P1;PMS_P2;Temp;Humidity;BMP_temperature;BMP_pressure;BME280_temperature;BME280_humidity;BME280_pressure;Samples;Min_cycle;Max_cycle;Signal;HPM_P1;HPM_P2
2023/03/24 00:01:03;;;;;;;21.83;9.03;;;;;;;;;;5052218;28;20049;-65
2023/03/24 00:03:29;;;;;;;20.73;8.87;;;;;;;;;;5051864;28;20041;-65
2023/03/24 00:05:57;;;;;;;28.47;9.93;;;;;;;;;;5050940;28;20041;-65
2023/03/24 00:08:23;;;;;;;17.97;8.00;;;;;;;;;;5051907;28;20049;-66
2023/03/24 00:10:50;;;;;;;15.87;7.47;;;;;;;;;;5052250;28;20068;-65
2023/03/24 00:13:16;;;;;;;17.53;8.37;;;;;;;;;;5052277;28;20055;-65
2023/03/24 00:15:42;;;;;;;13.17;7.90;;;;;;;;;;5051558;28;20037;-65
2023/03/24 00:18:09;;;;;;;18.07;8.00;;;;;;;;;;5052623;28;20044;-65
2023/03/24 00:20:35;;;;;;;24.00;8.80;;;;;;;;;;5051596;28;20059;-66
2023/03/24 00:23:02;;;;;;;20.50;9.37;;;;;;;;;;5050324;28;20414;-65
2023/03/24 00:25:38;;;;;;;19.80;8.20;;;;;;;;;;5051942;28;20037;-66
2023/03/24 00:28:06;;;;;;;18.90;7.57;;;;;;;;;;5051816;28;20059;-65
2023/03/24 00:30:32;;;;;;;21.23;7.90;;;;;;;;;;5052330;28;20503;-65
2023/03/24 00:33:00;;;;;;;21.17;7.17;;;;;;;;;;5051760;28;20114;-65
2023/03/24 00:35:27;;;;;;;21.37;9.17;;;;;;;;;;5052045;28;20081;-65
2023/03/24 00:37:53;;;;;;;19.37;8.73;;;;;;;;;;5051761;28;20091;-65
2023/03/24 00:40:19;;;;;;;19.30;7.77;;;;;;;;;;5051661;28;20099;-65
2023/03/24 00:42:46;;;;;;;15.90;8.33;;;;;;;;;;5051314;28;20045;-65
2023/03/24 00:45:18;;;;;;;16.53;7.73;;;;;;;;;;5051032;28;20492;-65
2023/03/24 00:47:44;;;;;;;20.37;8.50;;;;;;;;;;5051843;28;20128;-65
2023/03/24 00:50:15;;;;;;;15.40;7.53;;;;;;;;;;5051673;28;20043;-65
2023/03/24 00:52:43;;;;;;;19.77;7.50;;;;;;;;;;5051666;28;20060;-65
2023/03/24 00:55:12;;;;;;;16.17;7.80;;;;;;;;;;5052342;28;20080;-66
2023/03/24 00:57:39;;;;;;;18.83;7.87;;;;;;;;;;5050571;28;20545;-66
2023/03/24 01:00:12;;;;;;;14.03;7.17;;;;;;;;;;5051067;28;20047;-66
2023/03/24 01:02:38;;;;;;;23.92;8.43;;;;;;;;;;5051463;28;20055;-66
2023/03/24 01:05:05;;;;;;;15.63;6.47;;;;;;;;;;5051671;28;20057;-66
2023/03/24 01:07:32;;;;;;;12.40;7.03;;;;;;;;;;5051851;28;20060;-66
2023/03/24 01:09:58;;;;;;;12.73;7.07;;;;;;;;;;5050819;28;20087;-66
2023/03/24 01:12:25;;;;;;;13.67;6.83;;;;;;;;;;5049211;28;20483;-66
2023/03/24 01:14:52;;;;;;;15.57;7.50;;;;;;;;;;5049623;28;20107;-66
2023/03/24 01:17:21;;;;;;;15.87;8.13;;;;;;;;;;5051464;28;20044;-66
2023/03/24 01:19:47;;;;;;;15.47;7.60;;;;;;;;;;5051149;28;20057;-66
2023/03/24 01:22:13;;;;;;;17.70;8.33;;;;;;;;;;5050131;28;20132;-65
2023/03/24 01:24:39;;;;;;;13.33;6.90;;;;;;;;;;5049863;28;20079;-67
2023/03/24 01:27:05;;;;;;;18.60;8.07;;;;;;;;;;5051503;28;20053;-66
2023/03/24 01:29:31;;;;;;;15.70;7.67;;;;;;;;;;5048867;28;20433;-66
2023/03/24 01:31:57;;;;;;;14.83;7.43;;;;;;;;;;5050614;28;20045;-66
2023/03/24 01:34:23;;;;;;;15.00;7.40;;;;;;;;;;5050368;28;20069;-66
2023/03/24 01:36:50;;;;;;;16.80;7.63;;;;;;;;;;5050969;28;20045;-66
2023/03/24 01:39:16;;;;;;;16.67;7.60;;;;;;;;;;5040747;28;20042;-65
2023/03/24 01:41:42;;;;;;;16.50;7.60;;;;;;;;;;5046516;28;20454;-65
2023/03/24 01:44:26;;;;;;;13.93;7.40;;;;;;;;;;5031170;28;20041;-65
2023/03/24 01:46:53;;;;;;;12.53;7.03;;;;;;;;;;5029390;28;20137;-65
2023/03/24 01:49:20;;;;;;;16.50;8.37;;;;;;;;;;5046645;28;20068;-65
2023/03/24 01:51:48;;;;;;;13.10;6.87;;;;;;;;;;5049025;28;20051;-65
2023/03/24 01:54:23;;;;;;;14.27;6.77;;;;;;;;;;5029462;28;20491;-65
2023/03/24 01:56:59;;;;;;;12.43;7.47;;;;;;;;;;5039885;28;20550;-65
2023/03/24 01:59:27;;;;;;;13.60;6.63;;;;;;;;;;5050416;28;20073;-66
2023/03/24 02:02:01;;;;;;;12.87;7.33;;;;;;;;;;5050520;28;20090;-65
2023/03/24 02:04:29;;;;;;;13.70;7.90;;;;;;;;;;5050114;28;20049;-64
2023/03/24 02:06:55;;;;;;;12.20;7.50;;;;;;;;;;5049547;28;20045;-65
2023/03/24 02:09:21;;;;;;;20.40;7.07;;;;;;;;;;5048788;28;20036;-64
2023/03/24 02:11:47;;;;;;;10.80;7.07;;;;;;;;;;5049502;28;20045;-64
2023/03/24 02:14:14;;;;;;;16.27;8.53;;;;;;;;;;5050208;28;20405;-65
2023/03/24 02:16:40;;;;;;;13.83;6.63;;;;;;;;;;5049082;28;20458;-64
2023/03/24 02:19:25;;;;;;;11.20;6.77;;;;;;;;;;5048985;28;20053;-66
2023/03/24 02:21:57;;;;;;;17.97;9.17;;;;;;;;;;5049465;28;20487;-65
2023/03/24 02:24:29;;;;;;;14.27;7.60;;;;;;;;;;5050127;28;20452;-66
2023/03/24 02:27:00;;;;;;;12.50;8.23;;;;;;;;;;5049330;28;20061;-66
2023/03/24 02:29:27;;;;;;;14.47;7.33;;;;;;;;;;5049899;28;20502;-66
2023/03/24 02:32:11;;;;;;;16.07;7.10;;;;;;;;;;5050119;28;20131;-66
2023/03/24 02:34:40;;;;;;;12.57;7.60;;;;;;;;;;5034929;28;20522;-66
2023/03/24 02:37:13;;;;;;;14.43;8.80;;;;;;;;;;5050231;28;20423;-66
2023/03/24 02:39:49;;;;;;;14.87;8.80;;;;;;;;;;5049213;28;20053;-65
2023/03/24 02:42:25;;;;;;;13.87;7.53;;;;;;;;;;5049583;28;20043;-65
2023/03/24 02:44:59;;;;;;;12.13;6.77;;;;;;;;;;5050025;28;20202;-65
2023/03/24 02:47:41;;;;;;;14.87;8.30;;;;;;;;;;5048742;28;20415;-65
2023/03/24 02:50:12;;;;;;;19.20;7.53;;;;;;;;;;5048331;28;20102;-65
2023/03/24 02:53:04;;;;;;;13.77;8.93;;;;;;;;;;5028916;28;20525;-65
2023/03/24 02:55:38;;;;;;;12.03;7.60;;;;;;;;;;5020981;28;20053;-65
2023/03/24 02:58:04;;;;;;;;;;;;;;;;;;5029417;28;20099;-65
2023/03/24 03:00:31;;;;;;;14.23;8.93;;;;;;;;;;5032937;28;19925;-64
2023/03/24 03:03:01;;;;;;;13.87;7.87;;;;;;;;;;5048297;28;20057;-65
2023/03/24 03:05:34;;;;;;;13.20;8.40;;;;;;;;;;5049512;28;20406;-64
2023/03/24 03:08:01;;;;;;;15.93;8.98;;;;;;;;;;5049242;28;20052;-64
2023/03/24 03:10:30;;;;;;;13.03;8.33;;;;;;;;;;5049267;28;20060;-64
2023/03/24 03:12:58;;;;;;;12.90;7.70;;;;;;;;;;5047563;28;20049;-64
2023/03/24 03:15:27;;;;;;;14.57;8.60;;;;;;;;;;5048965;28;20090;-64
2023/03/24 03:18:01;;;;;;;16.13;9.37;;;;;;;;;;5049016;28;20543;-64
2023/03/24 03:20:29;;;;;;;13.73;8.43;;;;;;;;;;5049499;28;20182;-64
2023/03/24 03:22:55;;;;;;;13.77;9.60;;;;;;;;;;5048912;28;20037;-64
2023/03/24 03:25:25;;;;;;;13.07;8.90;;;;;;;;;;5048949;28;20190;-64
2023/03/24 03:27:53;;;;;;;13.03;7.97;;;;;;;;;;5047557;28;20053;-65
2023/03/24 03:30:33;;;;;;;15.87;8.40;;;;;;;;;;5047451;28;20554;-66
2023/03/24 03:33:03;;;;;;;11.70;8.07;;;;;;;;;;5049105;28;20044;-66
2023/03/24 03:35:33;;;;;;;14.50;8.33;;;;;;;;;;5048823;28;20404;-66
2023/03/24 03:38:07;;;;;;;8.13;6.33;;;;;;;;;;5047800;28;20121;-64
2023/03/24 03:40:40;;;;;;;7.20;4.33;;;;;;;;;;5032643;28;20049;-64
2023/03/24 03:43:06;;;;;;;12.05;6.28;;;;;;;;;;5028490;28;20492;-64
2023/03/24 03:45:33;;;;;;;8.07;4.97;;;;;;;;;;5038205;28;20057;-64
2023/03/24 03:48:00;;;;;;;11.90;5.17;;;;;;;;;;5048012;28;20495;-64
2023/03/24 03:50:26;;;;;;;8.07;4.93;;;;;;;;;;5048318;28;20458;-64
2023/03/24 03:52:53;;;;;;;5.07;3.00;;;;;;;;;;5048536;28;20182;-64
2023/03/24 03:55:19;;;;;;;10.70;2.90;;;;;;;;;;5048491;28;20045;-64
2023/03/24 03:57:45;;;;;;;8.03;3.10;;;;;;;;;;5048319;28;20072;-64
2023/03/24 04:00:14;;;;;;;10.53;3.93;;;;;;;;;;5047617;28;20064;-64
2023/03/24 04:02:46;;;;;;;10.63;4.33;;;;;;;;;;5048084;28;20256;-64
2023/03/24 04:05:26;;;;;;;10.50;2.97;;;;;;;;;;5048424;28;20052;-64
2023/03/24 04:08:13;;;;;;;8.97;3.37;;;;;;;;;;5048570;28;20048;-65
2023/03/24 04:10:42;;;;;;;9.67;2.93;;;;;;;;;;5048513;28;20190;-64
2023/03/24 04:13:27;;;;;;;12.47;3.43;;;;;;;;;;5048289;28;20479;-65
2023/03/24 04:16:28;;;;;;;10.97;2.87;;;;;;;;;;5048676;28;20067;-64
2023/03/24 04:19:03;;;;;;;10.70;2.37;;;;;;;;;;5045520;28;20057;-64
2023/03/24 04:21:41;;;;;;;9.00;2.50;;;;;;;;;;5047976;28;20537;-64
2023/03/24 04:24:25;;;;;;;11.10;2.83;;;;;;;;;;5047515;28;20511;-64
2023/03/24 04:26:59;;;;;;;11.30;2.70;;;;;;;;;;5047757;28;20065;-64
2023/03/24 04:29:32;;;;;;;8.50;2.40;;;;;;;;;;5037067;28;20426;-64
2023/03/24 04:32:04;;;;;;;9.40;2.50;;;;;;;;;;5048682;28;20056;-64
2023/03/24 04:34:49;;;;;;;11.00;2.23;;;;;;;;;;5048577;28;20033;-64
2023/03/24 04:37:17;;;;;;;10.57;2.53;;;;;;;;;;5048619;28;20499;-63
2023/03/24 04:39:45;;;;;;;15.60;2.93;;;;;;;;;;5048199;28;20129;-64
2023/03/24 04:42:20;;;;;;;12.40;2.67;;;;;;;;;;5048169;28;20142;-64
2023/03/24 04:44:50;;;;;;;12.60;3.33;;;;;;;;;;5048888;28;20052;-64
2023/03/24 04:47:17;;;;;;;13.87;2.77;;;;;;;;;;5052161;28;20040;-64
2023/03/24 04:49:43;;;;;;;17.23;3.67;;;;;;;;;;5050830;28;20036;-64
2023/03/24 04:52:09;;;;;;;21.93;5.13;;;;;;;;;;5051710;28;20044;-64
2023/03/24 04:54:35;;;;;;;11.93;2.97;;;;;;;;;;5052008;28;20044;-64
2023/03/24 04:57:01;;;;;;;15.50;3.37;;;;;;;;;;5051619;28;20051;-64
2023/03/24 04:59:28;;;;;;;14.53;3.33;;;;;;;;;;5051817;28;20510;-64
2023/03/24 05:01:54;;;;;;;13.70;3.47;;;;;;;;;;5051391;28;20052;-64
2023/03/24 05:04:22;;;;;;;9.93;3.10;;;;;;;;;;5051922;28;20059;-64
2023/03/24 05:06:51;;;;;;;12.07;3.93;;;;;;;;;;5051748;28;20094;-64
2023/03/24 05:09:17;;;;;;;16.60;3.77;;;;;;;;;;5051577;28;20123;-64
2023/03/24 05:11:44;;;;;;;18.70;3.50;;;;;;;;;;5051065;28;20456;-64
2023/03/24 05:14:11;;;;;;;17.90;3.43;;;;;;;;;;5051320;28;20037;-64
2023/03/24 05:16:37;;;;;;;12.33;3.93;;;;;;;;;;5040189;28;20069;-64
2023/03/24 05:19:03;;;;;;;10.03;2.77;;;;;;;;;;5046700;28;20490;-65
2023/03/24 05:21:29;;;;;;;15.53;3.03;;;;;;;;;;5030900;28;20053;-65
2023/03/24 05:23:55;;;;;;;12.03;2.87;;;;;;;;;;5041734;28;20128;-65
2023/03/24 05:26:21;;;;;;;17.90;3.90;;;;;;;;;;5040094;28;20060;-65
2023/03/24 05:28:47;;;;;;;17.47;3.13;;;;;;;;;;5044004;28;20056;-65
2023/03/24 05:31:13;;;;;;;31.73;7.83;;;;;;;;;;5041242;28;20506;-65
2023/03/24 05:33:40;;;;;;;14.17;3.57;;;;;;;;;;5046872;28;20118;-65
2023/03/24 05:36:06;;;;;;;15.40;3.70;;;;;;;;;;5050074;28;20049;-64
2023/03/24 05:38:32;;;;;;;12.77;2.87;;;;;;;;;;5030631;28;20828;-65
2023/03/24 05:40:58;;;;;;;19.00;3.37;;;;;;;;;;5048194;28;20045;-65
2023/03/24 05:43:25;;;;;;;18.67;4.37;;;;;;;;;;5050886;28;20044;-65
2023/03/24 05:45:51;;;;;;;13.23;2.87;;;;;;;;;;5048525;28;20060;-65
2023/03/24 05:48:17;;;;;;;15.70;3.00;;;;;;;;;;5049864;28;20130;-65
2023/03/24 05:50:43;;;;;;;15.00;3.53;;;;;;;;;;5050332;28;20124;-65
2023/03/24 05:53:10;;;;;;;11.80;3.10;;;;;;;;;;5050823;28;20134;-65
2023/03/24 05:55:36;;;;;;;14.33;3.63;;;;;;;;;;5050302;28;20045;-65
2023/03/24 05:58:02;;;;;;;10.90;2.80;;;;;;;;;;5049158;28;20123;-65
2023/03/24 06:00:30;;;;;;;16.33;3.10;;;;;;;;;;5050095;28;20049;-65
2023/03/24 06:02:57;;;;;;;17.03;3.73;;;;;;;;;;5050569;28;20041;-65
2023/03/24 06:05:23;;;;;;;14.67;4.10;;;;;;;;;;5050687;28;20043;-65
2023/03/24 06:07:49;;;;;;;14.87;3.50;;;;;;;;;;5031322;28;20216;-65
2023/03/24 06:10:17;;;;;;;14.30;3.87;;;;;;;;;;5045385;28;20048;-65
2023/03/24 06:12:43;;;;;;;12.33;3.47;;;;;;;;;;5049018;28;20051;-65
2023/03/24 06:15:10;;;;;;;15.27;3.80;;;;;;;;;;5049491;28;20616;-65
2023/03/24 06:17:37;;;;;;;15.43;3.17;;;;;;;;;;5049230;28;20049;-65
2023/03/24 06:20:04;;;;;;;15.40;3.83;;;;;;;;;;5047728;28;20276;-65
2023/03/24 06:22:32;;;;;;;13.07;3.40;;;;;;;;;;5046247;28;20388;-65
2023/03/24 06:24:58;;;;;;;16.97;4.47;;;;;;;;;;5045654;28;20047;-65
2023/03/24 06:27:29;;;;;;;16.50;3.67;;;;;;;;;;5045670;28;20071;-65
2023/03/24 06:29:55;;;;;;;15.00;2.80;;;;;;;;;;5044463;28;20138;-65
2023/03/24 06:32:21;;;;;;;20.03;3.93;;;;;;;;;;5046268;28;20044;-65
2023/03/24 06:34:47;;;;;;;15.70;3.80;;;;;;;;;;5048199;28;20052;-65
2023/03/24 06:37:14;;;;;;;18.13;3.07;;;;;;;;;;5043879;28;20047;-64
2023/03/24 06:39:40;;;;;;;23.13;3.07;;;;;;;;;;5049496;28;20506;-65
2023/03/24 06:42:06;;;;;;;15.77;3.60;;;;;;;;;;5049592;28;20051;-64
2023/03/24 06:44:32;;;;;;;18.07;4.30;;;;;;;;;;5048245;28;20049;-64
2023/03/24 06:46:59;;;;;;;15.13;3.47;;;;;;;;;;5044544;28;20108;-64
2023/03/24 06:49:25;;;;;;;13.13;2.93;;;;;;;;;;5049380;28;20048;-64
2023/03/24 06:51:51;;;;;;;15.87;3.00;;;;;;;;;;5048411;28;20055;-64
2023/03/24 06:54:17;;;;;;;22.83;3.70;;;;;;;;;;5049438;28;20498;-64
2023/03/24 06:56:43;;;;;;;17.27;3.30;;;;;;;;;;5049338;28;20051;-64
2023/03/24 06:59:09;;;;;;;24.10;3.53;;;;;;;;;;5049022;28;20056;-64
2023/03/24 07:01:37;;;;;;;22.80;4.57;;;;;;;;;;5046390;28;20051;-64
2023/03/24 07:04:03;;;;;;;25.50;4.83;;;;;;;;;;5048645;28;20059;-64
2023/03/24 07:06:29;;;;;;;18.70;4.43;;;;;;;;;;5049148;28;20041;-65
2023/03/24 07:08:58;;;;;;;23.23;3.40;;;;;;;;;;5047888;28;20136;-65
2023/03/24 07:11:24;;;;;;;26.13;4.20;;;;;;;;;;5046655;28;20051;-64
2023/03/24 07:13:51;;;;;;;21.23;3.60;;;;;;;;;;5047420;28;20759;-64
2023/03/24 07:16:17;;;;;;;14.30;3.10;;;;;;;;;;5031805;28;20352;-64
2023/03/24 07:18:43;;;;;;;18.80;3.77;;;;;;;;;;5028633;28;20060;-64
2023/03/24 07:21:09;;;;;;;17.20;3.13;;;;;;;;;;5028806;28;20049;-64
2023/03/24 07:23:35;;;;;;;21.17;4.43;;;;;;;;;;5028438;28;20049;-64
2023/03/24 07:26:01;;;;;;;31.23;4.53;;;;;;;;;;5028570;28;20164;-64
2023/03/24 07:28:27;;;;;;;21.73;3.50;;;;;;;;;;5032095;28;20480;-64
2023/03/24 07:30:53;;;;;;;24.13;4.60;;;;;;;;;;5048632;28;20138;-64
2023/03/24 07:33:19;;;;;;;24.27;4.67;;;;;;;;;;5048069;28;20045;-64
2023/03/24 07:35:45;;;;;;;23.10;4.40;;;;;;;;;;5047389;28;20052;-64
2023/03/24 07:38:11;;;;;;;29.67;5.30;;;;;;;;;;5048551;28;20041;-64
2023/03/24 07:40:37;;;;;;;27.07;5.33;;;;;;;;;;5047284;28;20056;-64
2023/03/24 07:43:04;;;;;;;27.10;4.87;;;;;;;;;;5048113;28;20526;-64
2023/03/24 07:45:31;;;;;;;24.43;5.73;;;;;;;;;;5046965;28;20495;-64
2023/03/24 07:48:00;;;;;;;28.17;5.03;;;;;;;;;;5047803;28;20076;-64
2023/03/24 07:50:29;;;;;;;20.40;4.37;;;;;;;;;;5048445;28;20049;-64
2023/03/24 07:52:55;;;;;;;21.67;5.23;;;;;;;;;;5046469;28;20049;-64
2023/03/24 07:55:22;;;;;;;27.87;4.57;;;;;;;;;;5047840;28;20381;-64
2023/03/24 07:57:48;;;;;;;23.73;4.80;;;;;;;;;;5048200;28;20041;-64
2023/03/24 08:00:23;;;;;;;19.47;4.40;;;;;;;;;;5047029;28;20036;-64
2023/03/24 08:02:53;;;;;;;18.67;4.27;;;;;;;;;;5047820;28;20056;-64
2023/03/24 08:05:20;;;;;;;16.87;4.23;;;;;;;;;;5046608;28;20041;-64
2023/03/24 08:07:54;;;;;;;21.43;4.30;;;;;;;;;;5046450;28;20045;-64
2023/03/24 08:10:25;;;;;;;22.50;4.57;;;;;;;;;;5047862;28;20132;-64
2023/03/24 08:12:52;;;;;;;23.73;4.27;;;;;;;;;;5047155;28;20079;-64
2023/03/24 08:15:18;;;;;;;33.63;6.80;;;;;;;;;;5047909;28;20447;-64
2023/03/24 08:17:44;;;;;;;22.97;3.97;;;;;;;;;;5048359;28;20051;-64
2023/03/24 08:20:13;;;;;;;20.47;3.60;;;;;;;;;;5049554;28;20048;-64
2023/03/24 08:22:40;;;;;;;22.30;4.03;;;;;;;;;;5049585;28;20107;-64
2023/03/24 08:25:07;;;;;;;19.30;4.37;;;;;;;;;;5051749;28;20045;-64
2023/03/24 08:27:33;;;;;;;18.37;4.17;;;;;;;;;;5051926;28;20049;-64
2023/03/24 08:29:59;;;;;;;18.40;4.03;;;;;;;;;;5051085;28;20053;-64
2023/03/24 08:32:25;;;;;;;19.87;4.03;;;;;;;;;;5052032;28;20456;-64
2023/03/24 08:34:53;;;;;;;27.27;5.20;;;;;;;;;;5052553;28;20053;-65
2023/03/24 08:37:19;;;;;;;23.43;4.20;;;;;;;;;;5051269;28;20049;-64
2023/03/24 08:39:45;;;;;;;22.00;5.47;;;;;;;;;;5048636;28;20059;-65
2023/03/24 08:42:11;;;;;;;18.93;3.53;;;;;;;;;;5049471;28;20044;-64
2023/03/24 08:44:37;;;;;;;16.10;4.00;;;;;;;;;;5040063;28;20045;-64
2023/03/24 08:47:03;;;;;;;20.03;4.00;;;;;;;;;;5043485;28;20042;-64
2023/03/24 08:49:30;;;;;;;16.23;4.27;;;;;;;;;;5040118;28;20546;-64
2023/03/24 08:51:56;;;;;;;20.00;4.90;;;;;;;;;;5045229;28;20132;-64
2023/03/24 08:54:23;;;;;;;20.50;3.70;;;;;;;;;;5038133;28;20055;-64
2023/03/24 08:56:49;;;;;;;21.30;4.87;;;;;;;;;;5057472;28;20510;-64
2023/03/24 08:59:15;;;;;;;13.47;3.47;;;;;;;;;;5044331;28;20038;-64
2023/03/24 09:01:42;;;;;;;19.17;4.03;;;;;;;;;;5042079;28;20135;-65
2023/03/24 09:04:08;;;;;;;21.63;4.43;;;;;;;;;;5045224;28;20045;-65
2023/03/24 09:06:34;;;;;;;15.63;3.80;;;;;;;;;;5050733;28;20465;-65
2023/03/24 09:09:00;;;;;;;18.47;4.20;;;;;;;;;;5050783;28;20056;-64
2023/03/24 09:11:26;;;;;;;12.53;3.17;;;;;;;;;;5051302;28;20053;-64
2023/03/24 09:13:52;;;;;;;19.83;3.20;;;;;;;;;;5049670;28;20383;-64
2023/03/24 09:16:18;;;;;;;16.77;2.93;;;;;;;;;;5050896;28;20053;-64
2023/03/24 09:18:45;;;;;;;19.03;3.47;;;;;;;;;;5050049;28;20041;-64
2023/03/24 09:21:11;;;;;;;14.47;3.57;;;;;;;;;;5050657;28;20487;-65
2023/03/24 09:23:37;;;;;;;20.97;4.57;;;;;;;;;;5050544;28;20048;-64
2023/03/24 09:26:04;;;;;;;18.53;4.70;;;;;;;;;;5050105;28;20123;-64
2023/03/24 09:28:30;;;;;;;14.27;3.10;;;;;;;;;;5050778;28;20118;-64
2023/03/24 09:31:00;;;;;;;14.07;3.60;;;;;;;;;;5049949;28;20491;-64
2023/03/24 09:33:26;;;;;;;18.20;4.07;;;;;;;;;;5050176;28;20057;-64
2023/03/24 09:35:56;;;;;;;14.43;3.63;;;;;;;;;;5050545;28;20056;-64
2023/03/24 09:38:22;;;;;;;13.63;2.87;;;;;;;;;;5050220;28;20053;-64
2023/03/24 09:40:50;;;;;;;14.77;3.57;;;;;;;;;;5049906;28;20041;-64
2023/03/24 09:43:36;;;;;;;13.63;3.23;;;;;;;;;;5050376;28;20041;-64
2023/03/24 09:46:04;;;;;;;13.10;3.13;;;;;;;;;;5050396;28;20430;-63
2023/03/24 09:48:36;;;;;;;18.10;3.83;;;;;;;;;;5050109;28;20056;-64
2023/03/24 09:51:21;;;;;;;13.37;3.60;;;;;;;;;;5050131;28;20045;-64
2023/03/24 09:53:56;;;;;;;12.13;3.10;;;;;;;;;;5049713;28;20048;-63
2023/03/24 09:56:23;;;;;;;19.93;4.47;;;;;;;;;;5050168;28;20049;-63
2023/03/24 09:58:54;;;;;;;10.93;2.97;;;;;;;;;;5048746;28;20055;-63
2023/03/24 10:01:25;;;;;;;20.63;3.67;;;;;;;;;;5050001;28;20049;-63
2023/03/24 10:03:53;;;;;;;13.23;3.07;;;;;;;;;;5049979;28;20106;-63
2023/03/24 10:06:26;;;;;;;12.53;3.47;;;;;;;;;;5049400;28;20136;-63
2023/03/24 10:09:11;;;;;;;15.90;3.13;;;;;;;;;;5049687;28;20041;-63
2023/03/24 10:11:56;;;;;;;20.17;3.40;;;;;;;;;;5049901;28;20072;-63
2023/03/24 10:14:31;;;;;;;17.60;3.63;;;;;;;;;;5049809;28;20056;-63
2023/03/24 10:16:57;;;;;;;14.00;2.60;;;;;;;;;;5049661;28;20041;-63
2023/03/24 10:19:33;;;;;;;13.47;3.57;;;;;;;;;;5049791;28;20045;-63
2023/03/24 10:22:10;;;;;;;13.10;3.87;;;;;;;;;;5049613;28;20495;-63
2023/03/24 10:24:57;;;;;;;11.30;3.00;;;;;;;;;;5049525;28;20440;-63
2023/03/24 10:27:27;;;;;;;18.80;3.43;;;;;;;;;;5048995;28;20099;-63
2023/03/24 10:29:54;;;;;;;16.13;3.83;;;;;;;;;;5049390;28;20052;-63
2023/03/24 10:32:22;;;;;;;14.33;3.17;;;;;;;;;;5049599;28;20477;-63
2023/03/24 10:34:50;;;;;;;13.37;2.60;;;;;;;;;;5049126;28;20783;-63
2023/03/24 10:37:16;;;;;;;12.60;2.57;;;;;;;;;;5047711;28;20510;-62
2023/03/24 10:39:43;;;;;;;10.30;2.47;;;;;;;;;;5049063;28;20049;-63
2023/03/24 10:42:13;;;;;;;13.13;3.10;;;;;;;;;;5048878;28;20060;-62
2023/03/24 10:44:39;;;;;;;10.40;2.70;;;;;;;;;;5049282;28;20053;-63
2023/03/24 10:47:07;;;;;;;11.23;2.27;;;;;;;;;;5049103;28;20474;-62
2023/03/24 10:49:33;;;;;;;11.57;3.23;;;;;;;;;;5048563;28;20503;-63
2023/03/24 10:52:02;;;;;;;12.73;2.50;;;;;;;;;;5049096;28;20499;-62
2023/03/24 10:54:29;;;;;;;11.67;2.77;;;;;;;;;;5048868;28;20072;-62
2023/03/24 10:57:04;;;;;;;13.17;2.77;;;;;;;;;;5048466;28;20415;-62
2023/03/24 10:59:50;;;;;;;14.43;2.57;;;;;;;;;;5048678;28;20044;-62
2023/03/24 11:02:45;;;;;;;14.40;3.10;;;;;;;;;;5049188;28;20053;-62
2023/03/24 11:05:11;;;;;;;12.37;2.80;;;;;;;;;;5043649;28;20515;-62
2023/03/24 11:07:39;;;;;;;12.13;2.37;;;;;;;;;;5044049;28;20040;-60
2023/03/24 11:10:15;;;;;;;10.30;2.63;;;;;;;;;;5028336;28;20467;-61
2023/03/24 11:13:03;;;;;;;11.30;3.20;;;;;;;;;;5028156;28;20360;-61
2023/03/24 11:15:31;;;;;;;11.27;2.50;;;;;;;;;;5028774;28;20132;-61
2023/03/24 11:18:00;;;;;;;14.63;3.03;;;;;;;;;;5029252;28;20050;-61
2023/03/24 11:20:33;;;;;;;16.77;4.07;;;;;;;;;;5036702;28;20454;-62
2023/03/24 11:23:08;;;;;;;15.37;3.50;;;;;;;;;;5039711;28;20544;-61
2023/03/24 11:25:39;;;;;;;14.87;2.97;;;;;;;;;;5038620;28;20048;-61
2023/03/24 11:28:10;;;;;;;9.73;2.27;;;;;;;;;;5037615;28;20080;-61
2023/03/24 11:30:46;;;;;;;10.10;2.13;;;;;;;;;;5036937;28;20049;-61
2023/03/24 11:33:38;;;;;;;13.53;2.97;;;;;;;;;;5036203;28;20415;-61
2023/03/24 11:36:23;;;;;;;10.73;2.67;;;;;;;;;;5034386;28;20457;-61
2023/03/24 11:38:58;;;;;;;9.70;2.37;;;;;;;;;;5041587;28;20084;-61
2023/03/24 11:41:24;;;;;;;12.90;2.20;;;;;;;;;;5045317;28;20492;-61
2023/03/24 11:43:50;;;;;;;10.67;2.97;;;;;;;;;;5037783;28;20041;-61
2023/03/24 11:46:19;;;;;;;11.47;2.50;;;;;;;;;;5032818;28;20041;-61
2023/03/24 11:48:54;;;;;;;9.77;3.00;;;;;;;;;;5027935;28;20132;-60
2023/03/24 11:51:29;;;;;;;8.17;2.57;;;;;;;;;;5028177;28;20915;-60
2023/03/24 11:53:56;;;;;;;7.87;2.07;;;;;;;;;;5033465;28;20049;-61
2023/03/24 11:56:25;;;;;;;11.60;2.63;;;;;;;;;;5027840;28;20045;-61
2023/03/24 11:59:01;;;;;;;10.53;2.70;;;;;;;;;;5028688;28;20119;-60
2023/03/24 12:01:31;;;;;;;12.93;2.83;;;;;;;;;;5031898;28;20056;-60
2023/03/24 12:03:57;;;;;;;9.43;2.60;;;;;;;;;;5036200;28;20048;-61
2023/03/24 12:06:27;;;;;;;10.27;2.77;;;;;;;;;;5037547;28;20411;-61
2023/03/24 12:08:55;;;;;;;9.57;3.10;;;;;;;;;;5036805;28;20204;-60
2023/03/24 12:11:34;;;;;;;13.53;3.03;;;;;;;;;;5035614;28;20140;-61
2023/03/24 12:14:01;;;;;;;7.03;2.00;;;;;;;;;;5035912;28;20430;-60
2023/03/24 12:16:36;;;;;;;14.73;2.53;;;;;;;;;;5036852;28;20529;-61
2023/03/24 12:19:02;;;;;;;10.97;2.17;;;;;;;;;;5037803;28;20132;-60
2023/03/24 12:21:28;;;;;;;11.43;2.43;;;;;;;;;;5034780;28;20490;-60
2023/03/24 12:23:58;;;;;;;12.37;3.03;;;;;;;;;;5041984;28;20055;-60
2023/03/24 12:26:27;;;;;;;15.07;2.40;;;;;;;;;;5047618;28;20135;-60
2023/03/24 12:28:57;;;;;;;9.07;2.33;;;;;;;;;;5038238;28;20057;-60
2023/03/24 12:31:34;;;;;;;13.17;2.73;;;;;;;;;;5028565;28;20171;-60
2023/03/24 12:34:07;;;;;;;12.07;2.90;;;;;;;;;;5035046;28;20483;-60
2023/03/24 12:36:42;;;;;;;12.02;3.13;;;;;;;;;;5035612;28;20072;-60
2023/03/24 12:39:11;;;;;;;13.27;2.33;;;;;;;;;;5035753;28;20045;-60
2023/03/24 12:41:47;;;;;;;9.23;4.10;;;;;;;;;;5037104;28;20049;-60
2023/03/24 12:44:17;;;;;;;15.97;3.30;;;;;;;;;;5035384;28;20045;-60
2023/03/24 12:47:01;;;;;;;12.00;2.70;;;;;;;;;;5036970;28;20064;-60
2023/03/24 12:49:39;;;;;;;11.87;2.87;;;;;;;;;;5027207;28;20053;-60
2023/03/24 12:52:14;;;;;;;15.93;3.97;;;;;;;;;;5027220;28;20053;-60
2023/03/24 12:54:40;;;;;;;16.43;3.67;;;;;;;;;;5038037;28;20057;-60
2023/03/24 12:57:14;;;;;;;9.33;2.97;;;;;;;;;;5035453;28;20045;-60
2023/03/24 12:59:45;;;;;;;10.97;3.00;;;;;;;;;;5034251;28;20048;-60
2023/03/24 13:02:17;;;;;;;11.57;2.67;;;;;;;;;;5041286;28;20045;-60
2023/03/24 13:04:45;;;;;;;15.03;3.60;;;;;;;;;;5039065;28;20499;-60
2023/03/24 13:07:13;;;;;;;15.00;3.80;;;;;;;;;;5031126;28;20551;-60
2023/03/24 13:09:54;;;;;;;12.20;3.20;;;;;;;;;;5034748;28;20045;-60
2023/03/24 13:12:20;;;;;;;11.97;2.70;;;;;;;;;;5043348;28;20052;-60
2023/03/24 13:14:49;;;;;;;15.10;2.77;;;;;;;;;;5035726;28;20060;-60
2023/03/24 13:17:30;;;;;;;14.07;3.83;;;;;;;;;;5038271;28;20045;-61
2023/03/24 13:19:57;;;;;;;13.07;2.90;;;;;;;;;;5034203;28;20045;-60
2023/03/24 13:22:24;;;;;;;13.40;3.00;;;;;;;;;;5034189;28;20045;-60
2023/03/24 13:24:51;;;;;;;12.20;2.70;;;;;;;;;;5032939;28;20041;-60
2023/03/24 13:27:24;;;;;;;12.00;3.13;;;;;;;;;;5045018;28;20470;-60
2023/03/24 13:30:05;;;;;;;11.02;2.50;;;;;;;;;;5045303;28;20048;-60
2023/03/24 13:32:34;;;;;;;11.27;2.70;;;;;;;;;;5043609;28;20045;-60
2023/03/24 13:35:01;;;;;;;11.07;3.10;;;;;;;;;;5041652;28;20072;-60
2023/03/24 13:37:48;;;;;;;12.73;2.70;;;;;;;;;;5040098;28;20057;-60
2023/03/24 13:40:27;;;;;;;11.67;2.83;;;;;;;;;;5038375;28;20042;-58
2023/03/24 13:42:57;;;;;;;12.97;3.00;;;;;;;;;;5037078;28;20049;-58
2023/03/24 13:45:33;;;;;;;13.03;2.90;;;;;;;;;;5038920;28;20037;-59
2023/03/24 13:48:08;;;;;;;11.60;3.07;;;;;;;;;;5040556;28;20066;-60
2023/03/24 13:50:55;;;;;;;10.20;2.30;;;;;;;;;;5041144;28;20045;-60
2023/03/24 13:53:28;;;;;;;11.20;2.57;;;;;;;;;;5040839;28;20041;-60
2023/03/24 13:55:54;;;;;;;15.10;3.07;;;;;;;;;;5036078;28;20050;-60
2023/03/24 13:58:20;;;;;;;15.57;2.80;;;;;;;;;;5029395;28;20333;-60
2023/03/24 14:01:05;;;;;;;11.87;2.57;;;;;;;;;;5030129;28;20045;-60
2023/03/24 14:03:35;;;;;;;14.23;2.60;;;;;;;;;;5038325;28;20049;-60
2023/03/24 14:06:03;;;;;;;9.53;2.53;;;;;;;;;;5038939;28;20056;-60
2023/03/24 14:08:35;;;;;;;13.07;2.73;;;;;;;;;;5045428;28;20084;-60
2023/03/24 14:11:01;;;;;;;12.67;2.90;;;;;;;;;;5041613;28;20041;-60
2023/03/24 14:13:35;;;;;;;12.23;2.40;;;;;;;;;;5039794;28;20033;-59
2023/03/24 14:16:21;;;;;;;13.07;2.87;;;;;;;;;;5040107;28;20052;-59
2023/03/24 14:18:47;;;;;;;14.27;3.57;;;;;;;;;;5038686;28;20066;-59
2023/03/24 14:21:13;;;;;;;10.37;2.73;;;;;;;;;;5038076;28;20774;-60
2023/03/24 14:23:42;;;;;;;14.27;3.93;;;;;;;;;;5037025;28;20170;-60
2023/03/24 14:26:12;;;;;;;15.37;3.13;;;;;;;;;;5037967;28;20079;-59
2023/03/24 14:28:39;;;;;;;11.13;2.73;;;;;;;;;;5038593;28;20103;-60
2023/03/24 14:31:14;;;;;;;13.00;3.00;;;;;;;;;;5037661;28;20042;-59
2023/03/24 14:33:43;;;;;;;12.27;2.67;;;;;;;;;;5037835;28;20736;-59
2023/03/24 14:36:13;;;;;;;10.67;2.23;;;;;;;;;;5038230;28;20063;-60
2023/03/24 14:38:43;;;;;;;14.27;2.67;;;;;;;;;;5037097;28;20087;-60
2023/03/24 14:41:16;;;;;;;11.77;3.13;;;;;;;;;;5038495;28;20052;-60
2023/03/24 14:43:45;;;;;;;7.72;1.67;;;;;;;;;;5037317;28;20535;-60
2023/03/24 14:46:20;;;;;;;18.43;2.77;;;;;;;;;;5036365;28;20124;-60